sensor_id;sensor_type;location;lat;lon;timestamp;P1;durP1;ratioP1;P2;durP2;ratioP2
51724;SDS011;37801;53.224;6.552;2023-06-10T00:01:51;6.32;;;3.38;;
51724;SDS011;37801;53.224;6.552;2023-06-10T00:04:20;6.90;;;3.80;;
51724;SDS011;37801;53.224;6.552;2023-06-10T00:06:46;6.65;;;3.80;;
51724;SDS011;37801;53.224;6.552;2023-06-10T00:09:14;8.00;;;3.60;;
51724;SDS011;37801;53.224;6.552;2023-06-10T00:11:41;6.85;;;3.67;;
51724;SDS011;37801;53.224;6.552;2023-06-10T00:14:07;6.38;;;3.70;;
51724;SDS011;37801;53.224;6.552;2023-06-10T00:16:33;6.97;;;3.80;;
51724;SDS011;37801;53.224;6.552;2023-06-10T00:18:59;5.38;;;3.60;;
51724;SDS011;37801;53.224;6.552;2023-06-10T00:21:33;7.00;;;3.65;;
51724;SDS011;37801;53.224;6.552;2023-06-10T00:24:10;8.23;;;3.55;;
51724;SDS011;37801;53.224;6.552;2023-06-10T00:26:39;6.47;;;3.47;;
51724;SDS011;37801;53.224;6.552;2023-06-10T00:29:05;12.50;;;3.90;;
51724;SDS011;37801;53.224;6.552;2023-06-10T00:31:32;5.40;;;3.40;;
51724;SDS011;37801;53.224;6.552;2023-06-10T00:34:01;6.60;;;4.00;;
51724;SDS011;37801;53.224;6.552;2023-06-10T00:36:28;8.98;;;3.78;;
51724;SDS011;37801;53.224;6.552;2023-06-10T00:38:53;8.00;;;4.28;;
51724;SDS011;37801;53.224;6.552;2023-06-10T00:41:19;6.10;;;3.70;;
51724;SDS011;37801;53.224;6.552;2023-06-10T00:43:45;7.95;;;3.63;;
51724;SDS011;37801;53.224;6.552;2023-06-10T00:46:11;9.52;;;4.13;;
51724;SDS011;37801;53.224;6.552;2023-06-10T00:48:39;6.82;;;3.80;;
51724;SDS011;37801;53.224;6.552;2023-06-10T00:51:07;5.85;;;3.97;;
51724;SDS011;37801;53.224;6.552;2023-06-10T00:53:35;5.90;;;3.67;;
51724;SDS011;37801;53.224;6.552;2023-06-10T00:56:02;6.93;;;4.43;;
51724;SDS011;37801;53.224;6.552;2023-06-10T00:58:28;5.97;;;3.88;;
51724;SDS011;37801;53.224;6.552;2023-06-10T01:00:54;5.65;;;3.90;;
51724;SDS011;37801;53.224;6.552;2023-06-10T01:03:20;7.43;;;3.92;;
51724;SDS011;37801;53.224;6.552;2023-06-10T01:05:48;6.95;;;4.18;;
51724;SDS011;37801;53.224;6.552;2023-06-10T01:10:54;6.68;;;3.85;;
51724;SDS011;37801;53.224;6.552;2023-06-10T01:13:26;7.32;;;4.10;;
51724;SDS011;37801;53.224;6.552;2023-06-10T01:15:57;10.40;;;4.53;;
51724;SDS011;37801;53.224;6.552;2023-06-10T01:18:23;7.38;;;3.95;;
51724;SDS011;37801;53.224;6.552;2023-06-10T01:20:55;8.80;;;4.20;;
51724;SDS011;37801;53.224;6.552;2023-06-10T01:23:22;6.97;;;4.13;;
51724;SDS011;37801;53.224;6.552;2023-06-10T01:26:10;10.52;;;3.92;;
51724;SDS011;37801;53.224;6.552;2023-06-10T01:34:02;6.82;;;3.83;;
51724;SDS011;37801;53.224;6.552;2023-06-10T01:36:33;6.25;;;3.67;;
51724;SDS011;37801;53.224;6.552;2023-06-10T01:39:01;6.20;;;3.70;;
51724;SDS011;37801;53.224;6.552;2023-06-10T01:41:29;7.97;;;3.90;;
51724;SDS011;37801;53.224;6.552;2023-06-10T01:43:56;7.63;;;3.72;;
51724;SDS011;37801;53.224;6.552;2023-06-10T01:46:21;5.95;;;3.47;;
51724;SDS011;37801;53.224;6.552;2023-06-10T01:48:47;5.72;;;3.55;;
51724;SDS011;37801;53.224;6.552;2023-06-10T01:51:13;6.45;;;4.00;;
51724;SDS011;37801;53.224;6.552;2023-06-10T01:53:39;5.32;;;3.50;;
51724;SDS011;37801;53.224;6.552;2023-06-10T01:56:05;5.95;;;3.13;;
51724;SDS011;37801;53.224;6.552;2023-06-10T01:58:31;8.30;;;4.07;;
51724;SDS011;37801;53.224;6.552;2023-06-10T02:00:56;6.38;;;3.55;;
51724;SDS011;37801;53.224;6.552;2023-06-10T02:03:22;6.55;;;3.70;;
51724;SDS011;37801;53.224;6.552;2023-06-10T02:05:48;8.07;;;3.72;;
51724;SDS011;37801;53.224;6.552;2023-06-10T02:08:14;8.77;;;3.63;;
51724;SDS011;37801;53.224;6.552;2023-06-10T02:10:40;5.82;;;3.40;;
51724;SDS011;37801;53.224;6.552;2023-06-10T02:13:06;5.90;;;3.50;;
51724;SDS011;37801;53.224;6.552;2023-06-10T02:15:32;8.07;;;3.67;;
51724;SDS011;37801;53.224;6.552;2023-06-10T02:17:57;6.78;;;3.40;;
51724;SDS011;37801;53.224;6.552;2023-06-10T02:20:24;5.78;;;3.22;;
51724;SDS011;37801;53.224;6.552;2023-06-10T02:22:50;9.65;;;3.42;;
51724;SDS011;37801;53.224;6.552;2023-06-10T02:25:16;7.80;;;3.40;;
51724;SDS011;37801;53.224;6.552;2023-06-10T02:27:41;8.15;;;3.53;;
51724;SDS011;37801;53.224;6.552;2023-06-10T02:30:07;6.28;;;3.50;;
51724;SDS011;37801;53.224;6.552;2023-06-10T02:32:35;6.57;;;2.92;;
51724;SDS011;37801;53.224;6.552;2023-06-10T02:35:01;7.15;;;3.53;;
51724;SDS011;37801;53.224;6.552;2023-06-10T02:37:27;6.72;;;3.38;;
51724;SDS011;37801;53.224;6.552;2023-06-10T02:39:55;7.05;;;3.30;;
51724;SDS011;37801;53.224;6.552;2023-06-10T02:42:20;6.32;;;3.40;;
51724;SDS011;37801;53.224;6.552;2023-06-10T02:44:46;6.28;;;3.63;;
51724;SDS011;37801;53.224;6.552;2023-06-10T02:47:12;9.23;;;3.05;;
51724;SDS011;37801;53.224;6.552;2023-06-10T02:49:37;5.93;;;3.30;;
51724;SDS011;37801;53.224;6.552;2023-06-10T02:52:03;7.30;;;3.10;;
51724;SDS011;37801;53.224;6.552;2023-06-10T02:54:29;6.45;;;3.50;;
51724;SDS011;37801;53.224;6.552;2023-06-10T02:56:55;8.88;;;3.70;;
51724;SDS011;37801;53.224;6.552;2023-06-10T02:59:21;5.80;;;3.08;;
51724;SDS011;37801;53.224;6.552;2023-06-10T03:01:47;7.78;;;3.38;;
51724;SDS011;37801;53.224;6.552;2023-06-10T03:04:13;5.97;;;3.67;;
51724;SDS011;37801;53.224;6.552;2023-06-10T03:06:39;6.30;;;3.20;;
51724;SDS011;37801;53.224;6.552;2023-06-10T03:09:06;9.40;;;3.70;;
51724;SDS011;37801;53.224;6.552;2023-06-10T03:11:34;8.88;;;3.78;;
51724;SDS011;37801;53.224;6.552;2023-06-10T03:14:00;7.00;;;3.40;;
51724;SDS011;37801;53.224;6.552;2023-06-10T03:16:26;7.43;;;3.55;;
51724;SDS011;37801;53.224;6.552;2023-06-10T03:18:52;9.07;;;3.60;;
51724;SDS011;37801;53.224;6.552;2023-06-10T03:21:18;8.88;;;3.25;;
51724;SDS011;37801;53.224;6.552;2023-06-10T03:23:44;6.45;;;3.53;;
51724;SDS011;37801;53.224;6.552;2023-06-10T03:26:11;7.68;;;3.30;;
51724;SDS011;37801;53.224;6.552;2023-06-10T03:28:40;6.57;;;3.58;;
51724;SDS011;37801;53.224;6.552;2023-06-10T03:31:06;8.05;;;3.33;;
51724;SDS011;37801;53.224;6.552;2023-06-10T03:33:32;7.18;;;3.28;;
51724;SDS011;37801;53.224;6.552;2023-06-10T03:35:58;6.75;;;3.58;;
51724;SDS011;37801;53.224;6.552;2023-06-10T03:38:23;7.90;;;3.40;;
51724;SDS011;37801;53.224;6.552;2023-06-10T03:40:49;7.47;;;3.60;;
51724;SDS011;37801;53.224;6.552;2023-06-10T03:43:15;13.95;;;3.47;;
51724;SDS011;37801;53.224;6.552;2023-06-10T03:45:41;8.00;;;3.30;;
51724;SDS011;37801;53.224;6.552;2023-06-10T03:48:07;7.68;;;3.92;;
51724;SDS011;37801;53.224;6.552;2023-06-10T03:50:33;8.88;;;3.83;;
51724;SDS011;37801;53.224;6.552;2023-06-10T03:53:01;7.32;;;3.63;;
51724;SDS011;37801;53.224;6.552;2023-06-10T03:55:27;6.30;;;3.85;;
51724;SDS011;37801;53.224;6.552;2023-06-10T03:57:53;9.10;;;3.95;;
51724;SDS011;37801;53.224;6.552;2023-06-10T04:00:18;8.02;;;4.43;;
51724;SDS011;37801;53.224;6.552;2023-06-10T04:02:46;7.90;;;3.58;;
51724;SDS011;37801;53.224;6.552;2023-06-10T04:05:13;9.98;;;4.05;;
51724;SDS011;37801;53.224;6.552;2023-06-10T04:07:40;13.07;;;4.28;;
51724;SDS011;37801;53.224;6.552;2023-06-10T04:10:07;11.35;;;4.15;;
51724;SDS011;37801;53.224;6.552;2023-06-10T04:12:34;8.52;;;4.35;;
51724;SDS011;37801;53.224;6.552;2023-06-10T04:15:00;7.60;;;4.72;;
51724;SDS011;37801;53.224;6.552;2023-06-10T04:17:26;8.88;;;4.43;;
51724;SDS011;37801;53.224;6.552;2023-06-10T04:19:52;9.70;;;4.53;;
51724;SDS011;37801;53.224;6.552;2023-06-10T04:22:19;9.50;;;5.25;;
51724;SDS011;37801;53.224;6.552;2023-06-10T04:24:45;9.50;;;4.63;;
51724;SDS011;37801;53.224;6.552;2023-06-10T04:27:11;10.57;;;4.75;;
51724;SDS011;37801;53.224;6.552;2023-06-10T04:29:37;11.35;;;4.50;;
51724;SDS011;37801;53.224;6.552;2023-06-10T04:32:03;10.43;;;4.47;;
51724;SDS011;37801;53.224;6.552;2023-06-10T04:34:30;9.00;;;4.43;;
51724;SDS011;37801;53.224;6.552;2023-06-10T04:36:56;11.50;;;4.65;;
51724;SDS011;37801;53.224;6.552;2023-06-10T04:39:22;9.50;;;4.70;;
51724;SDS011;37801;53.224;6.552;2023-06-10T04:41:48;8.02;;;4.28;;
51724;SDS011;37801;53.224;6.552;2023-06-10T04:44:13;10.52;;;4.55;;
51724;SDS011;37801;53.224;6.552;2023-06-10T04:46:39;11.85;;;4.80;;
51724;SDS011;37801;53.224;6.552;2023-06-10T04:49:05;8.52;;;4.13;;
51724;SDS011;37801;53.224;6.552;2023-06-10T04:51:31;9.00;;;4.43;;
51724;SDS011;37801;53.224;6.552;2023-06-10T04:53:57;9.68;;;4.55;;
51724;SDS011;37801;53.224;6.552;2023-06-10T04:56:23;7.90;;;4.53;;
51724;SDS011;37801;53.224;6.552;2023-06-10T04:58:50;9.43;;;4.35;;
51724;SDS011;37801;53.224;6.552;2023-06-10T05:01:16;9.57;;;5.03;;
51724;SDS011;37801;53.224;6.552;2023-06-10T05:03:41;11.20;;;5.15;;
51724;SDS011;37801;53.224;6.552;2023-06-10T05:06:07;10.15;;;4.68;;
51724;SDS011;37801;53.224;6.552;2023-06-10T05:08:33;9.02;;;4.43;;
51724;SDS011;37801;53.224;6.552;2023-06-10T05:10:59;9.32;;;4.82;;
51724;SDS011;37801;53.224;6.552;2023-06-10T05:13:25;10.43;;;4.90;;
51724;SDS011;37801;53.224;6.552;2023-06-10T05:15:50;8.88;;;4.88;;
51724;SDS011;37801;53.224;6.552;2023-06-10T05:18:16;10.30;;;4.68;;
51724;SDS011;37801;53.224;6.552;2023-06-10T05:20:42;8.60;;;4.20;;
51724;SDS011;37801;53.224;6.552;2023-06-10T05:23:08;10.02;;;4.55;;
51724;SDS011;37801;53.224;6.552;2023-06-10T05:25:33;11.07;;;5.57;;
51724;SDS011;37801;53.224;6.552;2023-06-10T05:28:00;11.18;;;4.93;;
51724;SDS011;37801;53.224;6.552;2023-06-10T05:30:26;13.38;;;4.88;;
51724;SDS011;37801;53.224;6.552;2023-06-10T05:32:51;8.68;;;4.72;;
51724;SDS011;37801;53.224;6.552;2023-06-10T05:35:18;13.18;;;4.65;;
51724;SDS011;37801;53.224;6.552;2023-06-10T05:37:44;10.75;;;4.88;;
51724;SDS011;37801;53.224;6.552;2023-06-10T05:40:10;7.68;;;4.30;;
51724;SDS011;37801;53.224;6.552;2023-06-10T05:42:36;10.13;;;4.50;;
51724;SDS011;37801;53.224;6.552;2023-06-10T05:45:02;7.07;;;3.97;;
51724;SDS011;37801;53.224;6.552;2023-06-10T05:47:28;12.00;;;4.93;;
51724;SDS011;37801;53.224;6.552;2023-06-10T05:49:54;9.70;;;4.72;;
51724;SDS011;37801;53.224;6.552;2023-06-10T05:52:20;7.90;;;4.78;;
51724;SDS011;37801;53.224;6.552;2023-06-10T05:54:46;8.98;;;4.30;;
51724;SDS011;37801;53.224;6.552;2023-06-10T05:57:11;8.88;;;4.38;;
51724;SDS011;37801;53.224;6.552;2023-06-10T05:59:37;9.35;;;4.45;;
51724;SDS011;37801;53.224;6.552;2023-06-10T06:02:03;9.77;;;4.32;;
51724;SDS011;37801;53.224;6.552;2023-06-10T06:04:29;10.55;;;4.40;;
51724;SDS011;37801;53.224;6.552;2023-06-10T06:06:54;9.23;;;4.65;;
51724;SDS011;37801;53.224;6.552;2023-06-10T06:09:20;10.60;;;4.90;;
51724;SDS011;37801;53.224;6.552;2023-06-10T06:11:46;9.35;;;4.90;;
51724;SDS011;37801;53.224;6.552;2023-06-10T06:14:12;10.57;;;4.80;;
51724;SDS011;37801;53.224;6.552;2023-06-10T06:16:38;8.02;;;4.43;;
51724;SDS011;37801;53.224;6.552;2023-06-10T06:19:03;8.20;;;4.35;;
51724;SDS011;37801;53.224;6.552;2023-06-10T06:21:29;10.02;;;4.80;;
51724;SDS011;37801;53.224;6.552;2023-06-10T06:23:55;10.20;;;4.20;;
51724;SDS011;37801;53.224;6.552;2023-06-10T06:26:21;8.52;;;4.45;;
51724;SDS011;37801;53.224;6.552;2023-06-10T06:28:46;7.85;;;4.47;;
51724;SDS011;37801;53.224;6.552;2023-06-10T06:31:12;8.27;;;4.22;;
51724;SDS011;37801;53.224;6.552;2023-06-10T06:33:38;8.02;;;4.50;;
51724;SDS011;37801;53.224;6.552;2023-06-10T06:36:03;8.80;;;4.40;;
51724;SDS011;37801;53.224;6.552;2023-06-10T06:38:29;10.07;;;4.22;;
51724;SDS011;37801;53.224;6.552;2023-06-10T06:40:55;11.20;;;4.10;;
51724;SDS011;37801;53.224;6.552;2023-06-10T06:43:21;8.63;;;4.70;;
51724;SDS011;37801;53.224;6.552;2023-06-10T06:45:47;7.45;;;4.18;;
51724;SDS011;37801;53.224;6.552;2023-06-10T06:48:12;8.85;;;4.43;;
51724;SDS011;37801;53.224;6.552;2023-06-10T06:50:38;8.57;;;4.20;;
51724;SDS011;37801;53.224;6.552;2023-06-10T06:53:06;9.35;;;4.57;;
51724;SDS011;37801;53.224;6.552;2023-06-10T06:55:32;9.90;;;4.45;;
51724;SDS011;37801;53.224;6.552;2023-06-10T06:57:58;11.45;;;5.03;;
51724;SDS011;37801;53.224;6.552;2023-06-10T07:00:27;9.20;;;4.50;;
51724;SDS011;37801;53.224;6.552;2023-06-10T07:02:53;11.82;;;4.43;;
51724;SDS011;37801;53.224;6.552;2023-06-10T07:05:19;8.63;;;4.15;;
51724;SDS011;37801;53.224;6.552;2023-06-10T07:07:44;8.10;;;4.22;;
51724;SDS011;37801;53.224;6.552;2023-06-10T07:10:11;8.43;;;4.28;;
51724;SDS011;37801;53.224;6.552;2023-06-10T07:12:36;10.00;;;4.82;;
51724;SDS011;37801;53.224;6.552;2023-06-10T07:15:02;7.78;;;4.47;;
51724;SDS011;37801;53.224;6.552;2023-06-10T07:17:28;10.15;;;4.18;;
51724;SDS011;37801;53.224;6.552;2023-06-10T07:19:54;11.05;;;4.78;;
51724;SDS011;37801;53.224;6.552;2023-06-10T07:22:22;10.75;;;4.60;;
51724;SDS011;37801;53.224;6.552;2023-06-10T07:24:48;10.18;;;4.57;;
51724;SDS011;37801;53.224;6.552;2023-06-10T07:27:13;8.38;;;4.45;;
51724;SDS011;37801;53.224;6.552;2023-06-10T07:29:39;9.98;;;4.20;;
51724;SDS011;37801;53.224;6.552;2023-06-10T07:32:05;14.88;;;4.40;;
51724;SDS011;37801;53.224;6.552;2023-06-10T07:34:31;11.73;;;4.80;;
51724;SDS011;37801;53.224;6.552;2023-06-10T07:36:56;10.60;;;4.13;;
51724;SDS011;37801;53.224;6.552;2023-06-10T07:39:22;7.95;;;4.30;;
51724;SDS011;37801;53.224;6.552;2023-06-10T07:41:48;6.65;;;4.30;;
51724;SDS011;37801;53.224;6.552;2023-06-10T07:44:14;6.53;;;3.95;;
51724;SDS011;37801;53.224;6.552;2023-06-10T07:46:40;9.35;;;4.38;;
51724;SDS011;37801;53.224;6.552;2023-06-10T07:49:06;6.65;;;3.60;;
51724;SDS011;37801;53.224;6.552;2023-06-10T07:51:32;7.75;;;3.75;;
51724;SDS011;37801;53.224;6.552;2023-06-10T07:53:57;34.63;;;6.75;;
51724;SDS011;37801;53.224;6.552;2023-06-10T07:56:23;24.75;;;6.35;;
51724;SDS011;37801;53.224;6.552;2023-06-10T07:58:50;16.92;;;4.72;;
51724;SDS011;37801;53.224;6.552;2023-06-10T08:01:16;9.57;;;3.90;;
51724;SDS011;37801;53.224;6.552;2023-06-10T08:03:42;10.07;;;4.22;;
51724;SDS011;37801;53.224;6.552;2023-06-10T08:06:07;7.35;;;3.65;;
51724;SDS011;37801;53.224;6.552;2023-06-10T08:08:33;7.78;;;3.95;;
51724;SDS011;37801;53.224;6.552;2023-06-10T08:10:59;7.80;;;4.22;;
51724;SDS011;37801;53.224;6.552;2023-06-10T08:13:25;11.52;;;3.75;;
51724;SDS011;37801;53.224;6.552;2023-06-10T08:15:51;7.72;;;3.78;;
51724;SDS011;37801;53.224;6.552;2023-06-10T08:18:18;6.68;;;3.88;;
51724;SDS011;37801;53.224;6.552;2023-06-10T08:20:44;6.03;;;3.20;;
51724;SDS011;37801;53.224;6.552;2023-06-10T08:23:10;7.28;;;4.03;;
51724;SDS011;37801;53.224;6.552;2023-06-10T08:25:35;7.85;;;4.22;;
51724;SDS011;37801;53.224;6.552;2023-06-10T08:28:01;7.90;;;3.63;;
51724;SDS011;37801;53.224;6.552;2023-06-10T08:30:27;7.40;;;3.95;;
51724;SDS011;37801;53.224;6.552;2023-06-10T08:32:52;13.15;;;5.03;;
51724;SDS011;37801;53.224;6.552;2023-06-10T08:35:18;7.75;;;4.28;;
51724;SDS011;37801;53.224;6.552;2023-06-10T08:37:44;8.63;;;4.20;;
51724;SDS011;37801;53.224;6.552;2023-06-10T08:40:10;8.95;;;3.88;;
51724;SDS011;37801;53.224;6.552;2023-06-10T08:42:39;7.85;;;3.53;;
51724;SDS011;37801;53.224;6.552;2023-06-10T08:45:12;6.65;;;3.63;;
51724;SDS011;37801;53.224;6.552;2023-06-10T08:47:44;8.83;;;3.90;;
51724;SDS011;37801;53.224;6.552;2023-06-10T08:50:13;7.55;;;3.70;;
51724;SDS011;37801;53.224;6.552;2023-06-10T08:52:43;8.10;;;3.70;;
51724;SDS011;37801;53.224;6.552;2023-06-10T08:55:21;6.97;;;3.15;;
51724;SDS011;37801;53.224;6.552;2023-06-10T08:57:52;8.07;;;3.90;;
51724;SDS011;37801;53.224;6.552;2023-06-10T09:00:19;7.00;;;2.95;;
51724;SDS011;37801;53.224;6.552;2023-06-10T09:02:45;6.18;;;3.80;;
51724;SDS011;37801;53.224;6.552;2023-06-10T09:05:11;8.45;;;3.38;;
51724;SDS011;37801;53.224;6.552;2023-06-10T09:07:38;6.93;;;3.40;;
51724;SDS011;37801;53.224;6.552;2023-06-10T09:10:04;6.35;;;3.40;;
51724;SDS011;37801;53.224;6.552;2023-06-10T09:12:32;9.93;;;3.30;;
51724;SDS011;37801;53.224;6.552;2023-06-10T09:14:59;5.10;;;3.10;;
51724;SDS011;37801;53.224;6.552;2023-06-10T09:17:26;11.93;;;3.80;;
51724;SDS011;37801;53.224;6.552;2023-06-10T09:19:52;6.20;;;3.35;;
51724;SDS011;37801;53.224;6.552;2023-06-10T09:22:21;7.47;;;3.38;;
51724;SDS011;37801;53.224;6.552;2023-06-10T09:24:47;5.82;;;3.28;;
51724;SDS011;37801;53.224;6.552;2023-06-10T09:27:13;8.73;;;3.63;;
51724;SDS011;37801;53.224;6.552;2023-06-10T09:29:52;7.50;;;3.70;;
51724;SDS011;37801;53.224;6.552;2023-06-10T09:32:19;5.90;;;3.40;;
51724;SDS011;37801;53.224;6.552;2023-06-10T09:34:46;8.75;;;3.35;;
51724;SDS011;37801;53.224;6.552;2023-06-10T09:37:14;7.10;;;3.33;;
51724;SDS011;37801;53.224;6.552;2023-06-10T09:40:00;7.60;;;3.58;;
51724;SDS011;37801;53.224;6.552;2023-06-10T09:42:33;9.57;;;3.13;;
51724;SDS011;37801;53.224;6.552;2023-06-10T09:45:01;7.15;;;3.17;;
51724;SDS011;37801;53.224;6.552;2023-06-10T09:47:27;7.97;;;3.47;;
51724;SDS011;37801;53.224;6.552;2023-06-10T09:49:54;6.45;;;3.05;;
51724;SDS011;37801;53.224;6.552;2023-06-10T09:52:23;6.30;;;3.35;;
51724;SDS011;37801;53.224;6.552;2023-06-10T09:54:54;8.75;;;4.03;;
51724;SDS011;37801;53.224;6.552;2023-06-10T09:57:25;5.10;;;2.92;;
51724;SDS011;37801;53.224;6.552;2023-06-10T09:59:54;6.72;;;3.13;;
51724;SDS011;37801;53.224;6.552;2023-06-10T10:02:20;7.85;;;3.55;;
51724;SDS011;37801;53.224;6.552;2023-06-10T10:04:46;9.02;;;3.33;;
51724;SDS011;37801;53.224;6.552;2023-06-10T10:07:12;7.80;;;3.67;;
51724;SDS011;37801;53.224;6.552;2023-06-10T10:09:39;8.68;;;3.72;;
51724;SDS011;37801;53.224;6.552;2023-06-10T10:12:09;7.15;;;3.35;;
51724;SDS011;37801;53.224;6.552;2023-06-10T10:14:36;7.18;;;3.13;;
51724;SDS011;37801;53.224;6.552;2023-06-10T10:17:10;6.05;;;3.15;;
51724;SDS011;37801;53.224;6.552;2023-06-10T10:19:37;9.00;;;3.45;;
51724;SDS011;37801;53.224;6.552;2023-06-10T10:22:15;6.35;;;3.40;;
51724;SDS011;37801;53.224;6.552;2023-06-10T10:24:46;8.18;;;3.20;;
51724;SDS011;37801;53.224;6.552;2023-06-10T10:27:21;6.32;;;3.72;;
51724;SDS011;37801;53.224;6.552;2023-06-10T10:29:52;7.95;;;3.55;;
51724;SDS011;37801;53.224;6.552;2023-06-10T10:32:25;7.00;;;3.45;;
51724;SDS011;37801;53.224;6.552;2023-06-10T10:35:07;5.93;;;3.28;;
51724;SDS011;37801;53.224;6.552;2023-06-10T10:37:37;9.85;;;3.90;;
51724;SDS011;37801;53.224;6.552;2023-06-10T10:40:04;7.25;;;3.38;;
51724;SDS011;37801;53.224;6.552;2023-06-10T10:42:31;8.48;;;3.75;;
51724;SDS011;37801;53.224;6.552;2023-06-10T10:44:58;6.82;;;3.53;;
51724;SDS011;37801;53.224;6.552;2023-06-10T10:47:25;8.68;;;3.97;;
51724;SDS011;37801;53.224;6.552;2023-06-10T10:49:54;5.70;;;3.20;;
51724;SDS011;37801;53.224;6.552;2023-06-10T10:52:24;7.22;;;3.80;;
51724;SDS011;37801;53.224;6.552;2023-06-10T10:54:52;8.07;;;3.53;;
51724;SDS011;37801;53.224;6.552;2023-06-10T10:57:21;7.80;;;3.80;;
51724;SDS011;37801;53.224;6.552;2023-06-10T11:02:33;10.73;;;3.45;;
51724;SDS011;37801;53.224;6.552;2023-06-10T11:05:00;6.95;;;3.60;;
51724;SDS011;37801;53.224;6.552;2023-06-10T11:07:28;6.38;;;3.55;;
51724;SDS011;37801;53.224;6.552;2023-06-10T11:12:25;4.38;;;3.00;;
51724;SDS011;37801;53.224;6.552;2023-06-10T11:15:03;9.27;;;3.58;;
51724;SDS011;37801;53.224;6.552;2023-06-10T11:17:30;8.80;;;3.28;;
51724;SDS011;37801;53.224;6.552;2023-06-10T11:19:55;8.48;;;3.47;;
51724;SDS011;37801;53.224;6.552;2023-06-10T11:22:24;6.95;;;3.42;;
51724;SDS011;37801;53.224;6.552;2023-06-10T11:24:50;7.15;;;3.38;;
51724;SDS011;37801;53.224;6.552;2023-06-10T11:27:17;7.03;;;2.92;;
51724;SDS011;37801;53.224;6.552;2023-06-10T11:30:34;8.05;;;3.33;;
51724;SDS011;37801;53.224;6.552;2023-06-10T11:32:32;10.98;;;3.50;;
51724;SDS011;37801;53.224;6.552;2023-06-10T11:34:59;8.07;;;3.30;;
51724;SDS011;37801;53.224;6.552;2023-06-10T11:37:28;6.55;;;3.00;;
51724;SDS011;37801;53.224;6.552;2023-06-10T11:39:54;6.82;;;2.80;;
51724;SDS011;37801;53.224;6.552;2023-06-10T11:42:21;8.45;;;3.33;;
51724;SDS011;37801;53.224;6.552;2023-06-10T11:44:51;6.75;;;3.17;;
51724;SDS011;37801;53.224;6.552;2023-06-10T11:47:18;5.00;;;2.97;;
51724;SDS011;37801;53.224;6.552;2023-06-10T11:49:44;7.35;;;3.33;;
51724;SDS011;37801;53.224;6.552;2023-06-10T11:52:10;7.63;;;3.50;;
51724;SDS011;37801;53.224;6.552;2023-06-10T11:54:37;5.85;;;3.15;;
51724;SDS011;37801;53.224;6.552;2023-06-10T11:57:03;7.50;;;3.63;;
51724;SDS011;37801;53.224;6.552;2023-06-10T11:59:29;7.13;;;3.78;;
51724;SDS011;37801;53.224;6.552;2023-06-10T12:01:56;8.50;;;3.85;;
51724;SDS011;37801;53.224;6.552;2023-06-10T12:04:22;6.40;;;3.10;;
51724;SDS011;37801;53.224;6.552;2023-06-10T12:06:51;5.13;;;3.10;;
51724;SDS011;37801;53.224;6.552;2023-06-10T12:11:52;7.05;;;3.20;;
51724;SDS011;37801;53.224;6.552;2023-06-10T12:17:24;9.82;;;3.25;;
51724;SDS011;37801;53.224;6.552;2023-06-10T12:19:56;5.45;;;2.85;;
51724;SDS011;37801;53.224;6.552;2023-06-10T12:22:22;5.07;;;3.13;;
51724;SDS011;37801;53.224;6.552;2023-06-10T12:25:00;5.05;;;3.17;;
51724;SDS011;37801;53.224;6.552;2023-06-10T12:27:32;5.03;;;2.85;;
51724;SDS011;37801;53.224;6.552;2023-06-10T12:29:59;6.68;;;3.10;;
51724;SDS011;37801;53.224;6.552;2023-06-10T12:32:45;7.32;;;3.15;;
51724;SDS011;37801;53.224;6.552;2023-06-10T12:35:12;6.57;;;3.45;;
51724;SDS011;37801;53.224;6.552;2023-06-10T12:37:43;6.18;;;3.08;;
51724;SDS011;37801;53.224;6.552;2023-06-10T12:40:38;5.72;;;3.38;;
51724;SDS011;37801;53.224;6.552;2023-06-10T12:43:07;7.45;;;3.30;;
51724;SDS011;37801;53.224;6.552;2023-06-10T12:45:37;5.82;;;3.00;;
51724;SDS011;37801;53.224;6.552;2023-06-10T12:48:10;6.20;;;3.40;;
51724;SDS011;37801;53.224;6.552;2023-06-10T12:50:38;7.03;;;3.22;;
51724;SDS011;37801;53.224;6.552;2023-06-10T12:53:05;5.47;;;3.25;;
51724;SDS011;37801;53.224;6.552;2023-06-10T12:55:32;5.93;;;3.15;;
51724;SDS011;37801;53.224;6.552;2023-06-10T12:57:58;7.22;;;3.30;;
51724;SDS011;37801;53.224;6.552;2023-06-10T13:00:25;8.25;;;3.22;;
51724;SDS011;37801;53.224;6.552;2023-06-10T13:02:53;7.85;;;3.30;;
51724;SDS011;37801;53.224;6.552;2023-06-10T13:05:19;7.30;;;3.65;;
51724;SDS011;37801;53.224;6.552;2023-06-10T13:07:45;9.80;;;3.80;;
51724;SDS011;37801;53.224;6.552;2023-06-10T13:10:15;4.95;;;2.88;;
51724;SDS011;37801;53.224;6.552;2023-06-10T13:12:42;8.23;;;3.90;;
51724;SDS011;37801;53.224;6.552;2023-06-10T13:15:09;7.07;;;3.15;;
51724;SDS011;37801;53.224;6.552;2023-06-10T13:17:35;6.28;;;3.33;;
51724;SDS011;37801;53.224;6.552;2023-06-10T13:20:02;8.18;;;3.05;;
51724;SDS011;37801;53.224;6.552;2023-06-10T13:22:30;5.88;;;3.38;;
51724;SDS011;37801;53.224;6.552;2023-06-10T13:25:01;7.35;;;3.13;;
51724;SDS011;37801;53.224;6.552;2023-06-10T13:27:32;6.82;;;2.92;;
51724;SDS011;37801;53.224;6.552;2023-06-10T13:29:57;6.10;;;3.60;;
51724;SDS011;37801;53.224;6.552;2023-06-10T13:32:23;11.15;;;4.05;;
51724;SDS011;37801;53.224;6.552;2023-06-10T13:34:49;6.95;;;3.40;;
51724;SDS011;37801;53.224;6.552;2023-06-10T13:37:15;5.53;;;3.20;;
51724;SDS011;37801;53.224;6.552;2023-06-10T13:39:44;5.00;;;3.15;;
51724;SDS011;37801;53.224;6.552;2023-06-10T13:42:12;5.85;;;3.38;;
51724;SDS011;37801;53.224;6.552;2023-06-10T13:44:38;7.15;;;3.53;;
51724;SDS011;37801;53.224;6.552;2023-06-10T13:47:03;6.55;;;3.63;;
51724;SDS011;37801;53.224;6.552;2023-06-10T13:49:29;6.63;;;3.50;;
51724;SDS011;37801;53.224;6.552;2023-06-10T13:51:56;6.72;;;3.28;;
51724;SDS011;37801;53.224;6.552;2023-06-10T13:54:22;6.30;;;3.33;;
51724;SDS011;37801;53.224;6.552;2023-06-10T13:56:47;5.78;;;3.22;;
51724;SDS011;37801;53.224;6.552;2023-06-10T13:59:13;7.63;;;3.25;;
51724;SDS011;37801;53.224;6.552;2023-06-10T14:01:39;7.38;;;3.22;;
51724;SDS011;37801;53.224;6.552;2023-06-10T14:04:05;6.15;;;3.05;;
51724;SDS011;37801;53.224;6.552;2023-06-10T14:06:32;4.60;;;2.90;;
51724;SDS011;37801;53.224;6.552;2023-06-10T14:08:59;5.18;;;2.97;;
51724;SDS011;37801;53.224;6.552;2023-06-10T14:11:25;5.20;;;3.00;;
51724;SDS011;37801;53.224;6.552;2023-06-10T14:13:50;6.78;;;3.22;;
51724;SDS011;37801;53.224;6.552;2023-06-10T14:16:16;5.00;;;3.05;;
51724;SDS011;37801;53.224;6.552;2023-06-10T14:18:42;5.80;;;3.20;;
51724;SDS011;37801;53.224;6.552;2023-06-10T14:21:08;5.95;;;2.85;;
51724;SDS011;37801;53.224;6.552;2023-06-10T14:23:34;5.18;;;3.13;;
51724;SDS011;37801;53.224;6.552;2023-06-10T14:26:00;7.28;;;2.60;;
51724;SDS011;37801;53.224;6.552;2023-06-10T14:28:28;5.43;;;2.50;;
51724;SDS011;37801;53.224;6.552;2023-06-10T14:30:54;6.38;;;2.80;;
51724;SDS011;37801;53.224;6.552;2023-06-10T14:33:20;9.80;;;2.92;;
51724;SDS011;37801;53.224;6.552;2023-06-10T14:35:45;6.00;;;2.55;;
51724;SDS011;37801;53.224;6.552;2023-06-10T14:38:11;7.07;;;3.42;;
51724;SDS011;37801;53.224;6.552;2023-06-10T14:40:37;8.00;;;3.42;;
51724;SDS011;37801;53.224;6.552;2023-06-10T14:43:02;5.05;;;2.67;;
51724;SDS011;37801;53.224;6.552;2023-06-10T14:45:34;5.18;;;2.72;;
51724;SDS011;37801;53.224;6.552;2023-06-10T14:48:04;6.07;;;2.72;;
51724;SDS011;37801;53.224;6.552;2023-06-10T14:50:30;5.07;;;2.63;;
51724;SDS011;37801;53.224;6.552;2023-06-10T14:52:57;5.85;;;2.60;;
51724;SDS011;37801;53.224;6.552;2023-06-10T14:55:26;5.13;;;2.58;;
51724;SDS011;37801;53.224;6.552;2023-06-10T14:57:51;7.35;;;2.83;;
51724;SDS011;37801;53.224;6.552;2023-06-10T15:00:18;5.47;;;2.45;;
51724;SDS011;37801;53.224;6.552;2023-06-10T15:02:49;4.95;;;2.42;;
51724;SDS011;37801;53.224;6.552;2023-06-10T15:05:16;6.30;;;2.80;;